sensor_id;sensor_type;location;lat;lon;timestamp;P1;durP1;ratioP1;P2;durP2;ratioP2
5171;SDS011;2605;49.770;9.868;2023-05-16T00:00:48;7.63;;;6.90;;
5171;SDS011;2605;49.770;9.868;2023-05-16T00:03:17;8.67;;;7.70;;
5171;SDS011;2605;49.770;9.868;2023-05-16T00:05:43;6.77;;;6.07;;
5171;SDS011;2605;49.770;9.868;2023-05-16T00:08:09;7.47;;;6.50;;
5171;SDS011;2605;49.770;9.868;2023-05-16T00:10:34;10.20;;;6.30;;
5171;SDS011;2605;49.770;9.868;2023-05-16T00:13:00;4.73;;;4.30;;
5171;SDS011;2605;49.770;9.868;2023-05-16T00:15:26;9.63;;;6.30;;
5171;SDS011;2605;49.770;9.868;2023-05-16T00:17:53;7.63;;;6.63;;
5171;SDS011;2605;49.770;9.868;2023-05-16T00:20:22;8.43;;;7.53;;
5171;SDS011;2605;49.770;9.868;2023-05-16T00:22:48;13.90;;;7.73;;
5171;SDS011;2605;49.770;9.868;2023-05-16T00:25:14;6.73;;;5.43;;
5171;SDS011;2605;49.770;9.868;2023-05-16T00:27:40;8.20;;;7.07;;
5171;SDS011;2605;49.770;9.868;2023-05-16T00:30:05;8.30;;;6.90;;
5171;SDS011;2605;49.770;9.868;2023-05-16T00:32:31;7.13;;;5.90;;
5171;SDS011;2605;49.770;9.868;2023-05-16T00:34:57;6.13;;;5.53;;
5171;SDS011;2605;49.770;9.868;2023-05-16T00:37:22;7.37;;;5.20;;
5171;SDS011;2605;49.770;9.868;2023-05-16T00:39:48;8.10;;;7.20;;
5171;SDS011;2605;49.770;9.868;2023-05-16T00:42:13;8.50;;;7.70;;
5171;SDS011;2605;49.770;9.868;2023-05-16T00:44:39;8.93;;;6.63;;
5171;SDS011;2605;49.770;9.868;2023-05-16T00:47:05;8.00;;;6.90;;
5171;SDS011;2605;49.770;9.868;2023-05-16T00:49:31;11.63;;;7.10;;
5171;SDS011;2605;49.770;9.868;2023-05-16T00:51:56;9.03;;;8.23;;
5171;SDS011;2605;49.770;9.868;2023-05-16T00:54:22;6.27;;;4.97;;
5171;SDS011;2605;49.770;9.868;2023-05-16T00:56:52;9.07;;;8.23;;
5171;SDS011;2605;49.770;9.868;2023-05-16T00:59:18;8.60;;;7.80;;
5171;SDS011;2605;49.770;9.868;2023-05-16T01:01:45;6.07;;;5.47;;
5171;SDS011;2605;49.770;9.868;2023-05-16T01:04:12;8.23;;;6.00;;
5171;SDS011;2605;49.770;9.868;2023-05-16T01:06:38;8.63;;;7.93;;
5171;SDS011;2605;49.770;9.868;2023-05-16T01:09:03;7.07;;;6.20;;
5171;SDS011;2605;49.770;9.868;2023-05-16T01:11:35;7.30;;;5.97;;
5171;SDS011;2605;49.770;9.868;2023-05-16T01:20:02;8.10;;;7.00;;
5171;SDS011;2605;49.770;9.868;2023-05-16T01:25:08;9.43;;;7.03;;
5171;SDS011;2605;49.770;9.868;2023-05-16T01:27:58;6.80;;;6.20;;
5171;SDS011;2605;49.770;9.868;2023-05-16T01:30:26;7.17;;;5.90;;
5171;SDS011;2605;49.770;9.868;2023-05-16T01:32:56;8.40;;;7.60;;
5171;SDS011;2605;49.770;9.868;2023-05-16T01:35:21;7.80;;;7.10;;
5171;SDS011;2605;49.770;9.868;2023-05-16T01:37:48;8.80;;;6.17;;
5171;SDS011;2605;49.770;9.868;2023-05-16T01:40:25;8.13;;;7.40;;
5171;SDS011;2605;49.770;9.868;2023-05-16T01:42:56;9.37;;;8.60;;
5171;SDS011;2605;49.770;9.868;2023-05-16T01:45:28;11.40;;;10.40;;
5171;SDS011;2605;49.770;9.868;2023-05-16T01:48:04;11.73;;;8.43;;
5171;SDS011;2605;49.770;9.868;2023-05-16T01:50:34;7.40;;;6.70;;
5171;SDS011;2605;49.770;9.868;2023-05-16T01:53:06;9.03;;;8.23;;
5171;SDS011;2605;49.770;9.868;2023-05-16T01:55:42;9.17;;;8.37;;
5171;SDS011;2605;49.770;9.868;2023-05-16T01:58:14;7.60;;;6.90;;
5171;SDS011;2605;49.770;9.868;2023-05-16T02:00:41;10.70;;;8.33;;
5171;SDS011;2605;49.770;9.868;2023-05-16T02:03:06;9.37;;;8.47;;
5171;SDS011;2605;49.770;9.868;2023-05-16T02:05:32;13.20;;;9.93;;
5171;SDS011;2605;49.770;9.868;2023-05-16T02:07:58;10.13;;;8.27;;
5171;SDS011;2605;49.770;9.868;2023-05-16T02:10:25;10.80;;;9.57;;
5171;SDS011;2605;49.770;9.868;2023-05-16T02:12:51;10.50;;;9.47;;
5171;SDS011;2605;49.770;9.868;2023-05-16T02:15:17;10.20;;;8.13;;
5171;SDS011;2605;49.770;9.868;2023-05-16T02:17:42;11.37;;;10.27;;
5171;SDS011;2605;49.770;9.868;2023-05-16T02:20:08;11.47;;;10.33;;
5171;SDS011;2605;49.770;9.868;2023-05-16T02:22:34;13.67;;;11.47;;
5171;SDS011;2605;49.770;9.868;2023-05-16T02:25:01;12.10;;;10.90;;
5171;SDS011;2605;49.770;9.868;2023-05-16T02:27:27;12.83;;;9.30;;
5171;SDS011;2605;49.770;9.868;2023-05-16T02:29:53;12.03;;;10.83;;
5171;SDS011;2605;49.770;9.868;2023-05-16T02:32:19;17.73;;;11.30;;
5171;SDS011;2605;49.770;9.868;2023-05-16T02:34:44;12.70;;;11.47;;
5171;SDS011;2605;49.770;9.868;2023-05-16T02:37:10;12.50;;;9.97;;
5171;SDS011;2605;49.770;9.868;2023-05-16T02:39:35;11.90;;;10.70;;
5171;SDS011;2605;49.770;9.868;2023-05-16T02:42:01;11.57;;;10.20;;
5171;SDS011;2605;49.770;9.868;2023-05-16T02:44:28;13.77;;;12.13;;
5171;SDS011;2605;49.770;9.868;2023-05-16T02:46:53;11.27;;;10.13;;
5171;SDS011;2605;49.770;9.868;2023-05-16T02:49:19;12.00;;;10.10;;
5171;SDS011;2605;49.770;9.868;2023-05-16T02:51:44;12.73;;;11.53;;
5171;SDS011;2605;49.770;9.868;2023-05-16T02:54:10;12.57;;;10.60;;
5171;SDS011;2605;49.770;9.868;2023-05-16T02:56:39;13.57;;;12.00;;
5171;SDS011;2605;49.770;9.868;2023-05-16T02:59:07;10.40;;;9.33;;
5171;SDS011;2605;49.770;9.868;2023-05-16T03:01:33;10.33;;;8.60;;
5171;SDS011;2605;49.770;9.868;2023-05-16T03:03:58;13.67;;;12.27;;
5171;SDS011;2605;49.770;9.868;2023-05-16T03:06:24;15.13;;;11.93;;
5171;SDS011;2605;49.770;9.868;2023-05-16T03:08:49;14.80;;;12.53;;
5171;SDS011;2605;49.770;9.868;2023-05-16T03:11:16;15.03;;;11.40;;
5171;SDS011;2605;49.770;9.868;2023-05-16T03:13:45;14.83;;;10.23;;
5171;SDS011;2605;49.770;9.868;2023-05-16T03:16:11;14.17;;;11.50;;
5171;SDS011;2605;49.770;9.868;2023-05-16T03:18:36;9.17;;;8.17;;
5171;SDS011;2605;49.770;9.868;2023-05-16T03:21:02;12.90;;;11.50;;
5171;SDS011;2605;49.770;9.868;2023-05-16T03:23:28;13.80;;;11.00;;
5171;SDS011;2605;49.770;9.868;2023-05-16T03:25:53;14.20;;;12.80;;
5171;SDS011;2605;49.770;9.868;2023-05-16T03:28:19;13.20;;;12.00;;
5171;SDS011;2605;49.770;9.868;2023-05-16T03:30:44;14.27;;;11.37;;
5171;SDS011;2605;49.770;9.868;2023-05-16T03:33:10;13.23;;;10.63;;
5171;SDS011;2605;49.770;9.868;2023-05-16T03:35:35;17.77;;;12.80;;
5171;SDS011;2605;49.770;9.868;2023-05-16T03:38:01;19.77;;;16.10;;
5171;SDS011;2605;49.770;9.868;2023-05-16T03:40:27;11.83;;;9.80;;
5171;SDS011;2605;49.770;9.868;2023-05-16T03:42:52;16.10;;;14.37;;
5171;SDS011;2605;49.770;9.868;2023-05-16T03:45:18;17.23;;;13.43;;
5171;SDS011;2605;49.770;9.868;2023-05-16T03:47:43;17.53;;;15.10;;
5171;SDS011;2605;49.770;9.868;2023-05-16T03:50:09;18.23;;;14.90;;
5171;SDS011;2605;49.770;9.868;2023-05-16T03:52:35;15.57;;;13.90;;
5171;SDS011;2605;49.770;9.868;2023-05-16T03:55:01;18.03;;;15.00;;
5171;SDS011;2605;49.770;9.868;2023-05-16T03:57:30;13.17;;;11.87;;
5171;SDS011;2605;49.770;9.868;2023-05-16T03:59:56;17.13;;;12.70;;
5171;SDS011;2605;49.770;9.868;2023-05-16T04:02:22;13.30;;;11.90;;
5171;SDS011;2605;49.770;9.868;2023-05-16T04:04:50;16.33;;;12.93;;
5171;SDS011;2605;49.770;9.868;2023-05-16T04:07:16;17.27;;;15.23;;
5171;SDS011;2605;49.770;9.868;2023-05-16T04:09:41;11.97;;;10.77;;
5171;SDS011;2605;49.770;9.868;2023-05-16T04:12:07;17.00;;;11.43;;
5171;SDS011;2605;49.770;9.868;2023-05-16T04:14:33;12.13;;;10.90;;
5171;SDS011;2605;49.770;9.868;2023-05-16T04:16:59;17.50;;;14.13;;
5171;SDS011;2605;49.770;9.868;2023-05-16T04:19:25;11.33;;;9.50;;
5171;SDS011;2605;49.770;9.868;2023-05-16T04:21:50;15.10;;;13.40;;
5171;SDS011;2605;49.770;9.868;2023-05-16T04:24:16;13.20;;;11.80;;
5171;SDS011;2605;49.770;9.868;2023-05-16T04:26:42;12.83;;;10.33;;
5171;SDS011;2605;49.770;9.868;2023-05-16T04:29:07;13.20;;;11.10;;
5171;SDS011;2605;49.770;9.868;2023-05-16T04:31:33;16.03;;;14.40;;
5171;SDS011;2605;49.770;9.868;2023-05-16T04:33:58;15.33;;;10.67;;
5171;SDS011;2605;49.770;9.868;2023-05-16T04:36:24;12.77;;;10.10;;
5171;SDS011;2605;49.770;9.868;2023-05-16T04:38:50;9.50;;;7.30;;
5171;SDS011;2605;49.770;9.868;2023-05-16T04:41:16;9.67;;;7.60;;
5171;SDS011;2605;49.770;9.868;2023-05-16T04:43:42;10.90;;;8.33;;
5171;SDS011;2605;49.770;9.868;2023-05-16T04:46:08;11.67;;;9.40;;
5171;SDS011;2605;49.770;9.868;2023-05-16T04:48:34;9.90;;;8.90;;
5171;SDS011;2605;49.770;9.868;2023-05-16T04:50:59;12.50;;;10.20;;
5171;SDS011;2605;49.770;9.868;2023-05-16T04:53:25;8.63;;;7.83;;
5171;SDS011;2605;49.770;9.868;2023-05-16T04:55:51;6.57;;;5.93;;
5171;SDS011;2605;49.770;9.868;2023-05-16T04:58:16;9.40;;;7.60;;
5171;SDS011;2605;49.770;9.868;2023-05-16T05:00:42;11.30;;;10.10;;
5171;SDS011;2605;49.770;9.868;2023-05-16T05:03:08;9.33;;;8.40;;
5171;SDS011;2605;49.770;9.868;2023-05-16T05:05:33;10.03;;;6.93;;
5171;SDS011;2605;49.770;9.868;2023-05-16T05:07:59;10.73;;;9.10;;
5171;SDS011;2605;49.770;9.868;2023-05-16T05:10:25;10.93;;;8.50;;
5171;SDS011;2605;49.770;9.868;2023-05-16T05:12:51;8.17;;;6.40;;
5171;SDS011;2605;49.770;9.868;2023-05-16T05:15:17;9.40;;;8.50;;
5171;SDS011;2605;49.770;9.868;2023-05-16T05:17:43;14.00;;;8.07;;
5171;SDS011;2605;49.770;9.868;2023-05-16T05:20:09;12.80;;;11.03;;
5171;SDS011;2605;49.770;9.868;2023-05-16T05:22:35;13.33;;;9.90;;
5171;SDS011;2605;49.770;9.868;2023-05-16T05:25:01;8.90;;;7.10;;
5171;SDS011;2605;49.770;9.868;2023-05-16T05:27:26;13.80;;;9.10;;
5171;SDS011;2605;49.770;9.868;2023-05-16T05:29:52;14.50;;;11.67;;
5171;SDS011;2605;49.770;9.868;2023-05-16T05:32:18;10.20;;;9.20;;
5171;SDS011;2605;49.770;9.868;2023-05-16T05:34:43;14.30;;;10.80;;
5171;SDS011;2605;49.770;9.868;2023-05-16T05:37:09;14.60;;;10.73;;
5171;SDS011;2605;49.770;9.868;2023-05-16T05:39:34;11.50;;;10.17;;
5171;SDS011;2605;49.770;9.868;2023-05-16T05:42:00;12.13;;;9.30;;
5171;SDS011;2605;49.770;9.868;2023-05-16T05:44:27;11.97;;;8.90;;
5171;SDS011;2605;49.770;9.868;2023-05-16T05:46:53;16.70;;;9.20;;
5171;SDS011;2605;49.770;9.868;2023-05-16T05:49:21;13.33;;;10.00;;
5171;SDS011;2605;49.770;9.868;2023-05-16T05:51:47;12.50;;;10.70;;
5171;SDS011;2605;49.770;9.868;2023-05-16T05:54:15;12.37;;;10.70;;
5171;SDS011;2605;49.770;9.868;2023-05-16T05:56:41;16.50;;;13.03;;
5171;SDS011;2605;49.770;9.868;2023-05-16T05:59:07;13.20;;;9.03;;
5171;SDS011;2605;49.770;9.868;2023-05-16T06:01:32;14.07;;;12.03;;
5171;SDS011;2605;49.770;9.868;2023-05-16T06:03:58;15.17;;;9.87;;
5171;SDS011;2605;49.770;9.868;2023-05-16T06:06:23;17.10;;;11.47;;
5171;SDS011;2605;49.770;9.868;2023-05-16T06:08:49;15.17;;;13.57;;
5171;SDS011;2605;49.770;9.868;2023-05-16T06:11:14;15.70;;;13.00;;
5171;SDS011;2605;49.770;9.868;2023-05-16T06:13:40;14.27;;;12.27;;
5171;SDS011;2605;49.770;9.868;2023-05-16T06:16:05;16.57;;;12.30;;
5171;SDS011;2605;49.770;9.868;2023-05-16T06:18:31;19.63;;;14.90;;
5171;SDS011;2605;49.770;9.868;2023-05-16T06:20:56;15.73;;;14.00;;
5171;SDS011;2605;49.770;9.868;2023-05-16T06:23:22;17.30;;;13.97;;
5171;SDS011;2605;49.770;9.868;2023-05-16T06:25:47;16.30;;;13.57;;
5171;SDS011;2605;49.770;9.868;2023-05-16T06:28:13;15.10;;;13.47;;
5171;SDS011;2605;49.770;9.868;2023-05-16T06:30:38;22.13;;;15.70;;
5171;SDS011;2605;49.770;9.868;2023-05-16T06:33:04;19.27;;;14.97;;
5171;SDS011;2605;49.770;9.868;2023-05-16T06:35:30;20.80;;;14.83;;
5171;SDS011;2605;49.770;9.868;2023-05-16T06:37:58;15.67;;;12.43;;
5171;SDS011;2605;49.770;9.868;2023-05-16T06:40:24;17.03;;;12.60;;
5171;SDS011;2605;49.770;9.868;2023-05-16T06:42:49;16.47;;;13.80;;
5171;SDS011;2605;49.770;9.868;2023-05-16T06:45:15;16.70;;;12.40;;
5171;SDS011;2605;49.770;9.868;2023-05-16T06:47:40;16.90;;;13.20;;
5171;SDS011;2605;49.770;9.868;2023-05-16T06:50:06;19.43;;;14.40;;
5171;SDS011;2605;49.770;9.868;2023-05-16T06:52:32;19.47;;;14.77;;
5171;SDS011;2605;49.770;9.868;2023-05-16T06:54:57;17.27;;;12.07;;
5171;SDS011;2605;49.770;9.868;2023-05-16T06:57:23;24.83;;;15.17;;
5171;SDS011;2605;49.770;9.868;2023-05-16T06:59:48;23.03;;;10.70;;
5171;SDS011;2605;49.770;9.868;2023-05-16T07:02:14;18.80;;;11.57;;
5171;SDS011;2605;49.770;9.868;2023-05-16T07:04:39;21.77;;;14.77;;
5171;SDS011;2605;49.770;9.868;2023-05-16T07:07:05;20.30;;;11.93;;
5171;SDS011;2605;49.770;9.868;2023-05-16T07:09:32;18.93;;;14.67;;
5171;SDS011;2605;49.770;9.868;2023-05-16T07:11:57;16.80;;;13.70;;
5171;SDS011;2605;49.770;9.868;2023-05-16T07:14:23;18.97;;;14.17;;
5171;SDS011;2605;49.770;9.868;2023-05-16T07:16:48;19.00;;;16.53;;
5171;SDS011;2605;49.770;9.868;2023-05-16T07:19:14;16.50;;;13.20;;
5171;SDS011;2605;49.770;9.868;2023-05-16T07:21:39;18.67;;;14.97;;
5171;SDS011;2605;49.770;9.868;2023-05-16T07:24:05;16.33;;;9.20;;
5171;SDS011;2605;49.770;9.868;2023-05-16T07:26:31;15.20;;;11.73;;
5171;SDS011;2605;49.770;9.868;2023-05-16T07:28:57;13.20;;;11.80;;
5171;SDS011;2605;49.770;9.868;2023-05-16T07:31:22;9.93;;;8.77;;
5171;SDS011;2605;49.770;9.868;2023-05-16T07:33:48;15.93;;;10.47;;
5171;SDS011;2605;49.770;9.868;2023-05-16T07:36:13;16.20;;;13.80;;
5171;SDS011;2605;49.770;9.868;2023-05-16T07:38:39;12.30;;;10.90;;
5171;SDS011;2605;49.770;9.868;2023-05-16T07:41:05;13.17;;;11.47;;
5171;SDS011;2605;49.770;9.868;2023-05-16T07:43:33;10.50;;;9.03;;
5171;SDS011;2605;49.770;9.868;2023-05-16T07:45:59;10.60;;;7.50;;
5171;SDS011;2605;49.770;9.868;2023-05-16T07:48:25;9.33;;;8.43;;
5171;SDS011;2605;49.770;9.868;2023-05-16T07:50:51;12.23;;;9.73;;
5171;SDS011;2605;49.770;9.868;2023-05-16T07:53:17;10.40;;;8.90;;
5171;SDS011;2605;49.770;9.868;2023-05-16T07:55:42;17.33;;;11.63;;
5171;SDS011;2605;49.770;9.868;2023-05-16T07:58:08;10.63;;;8.83;;
5171;SDS011;2605;49.770;9.868;2023-05-16T08:00:33;13.77;;;10.93;;
5171;SDS011;2605;49.770;9.868;2023-05-16T08:02:59;9.43;;;8.50;;
5171;SDS011;2605;49.770;9.868;2023-05-16T08:05:25;13.60;;;11.17;;
5171;SDS011;2605;49.770;9.868;2023-05-16T08:07:50;11.30;;;9.10;;
5171;SDS011;2605;49.770;9.868;2023-05-16T08:10:16;11.70;;;10.17;;
5171;SDS011;2605;49.770;9.868;2023-05-16T08:12:41;10.30;;;8.90;;
5171;SDS011;2605;49.770;9.868;2023-05-16T08:15:07;8.87;;;7.93;;
5171;SDS011;2605;49.770;9.868;2023-05-16T08:17:33;7.30;;;6.10;;
5171;SDS011;2605;49.770;9.868;2023-05-16T08:19:58;9.90;;;8.90;;
5171;SDS011;2605;49.770;9.868;2023-05-16T08:22:25;9.23;;;8.37;;
5171;SDS011;2605;49.770;9.868;2023-05-16T08:24:54;13.70;;;6.53;;
5171;SDS011;2605;49.770;9.868;2023-05-16T08:27:24;10.60;;;8.83;;
5171;SDS011;2605;49.770;9.868;2023-05-16T08:29:50;8.70;;;7.23;;
5171;SDS011;2605;49.770;9.868;2023-05-16T08:32:16;6.93;;;6.33;;
5171;SDS011;2605;49.770;9.868;2023-05-16T08:34:41;7.87;;;7.07;;
5171;SDS011;2605;49.770;9.868;2023-05-16T08:37:07;8.33;;;7.63;;
5171;SDS011;2605;49.770;9.868;2023-05-16T08:39:32;8.70;;;7.40;;
5171;SDS011;2605;49.770;9.868;2023-05-16T08:41:58;8.57;;;7.60;;
5171;SDS011;2605;49.770;9.868;2023-05-16T08:44:24;8.30;;;6.93;;
5171;SDS011;2605;49.770;9.868;2023-05-16T08:46:51;8.47;;;7.53;;
5171;SDS011;2605;49.770;9.868;2023-05-16T08:49:18;9.90;;;7.97;;
5171;SDS011;2605;49.770;9.868;2023-05-16T08:51:45;10.40;;;9.40;;
5171;SDS011;2605;49.770;9.868;2023-05-16T08:54:12;6.50;;;5.90;;
5171;SDS011;2605;49.770;9.868;2023-05-16T08:56:40;10.47;;;7.90;;
5171;SDS011;2605;49.770;9.868;2023-05-16T08:59:06;9.03;;;6.60;;
5171;SDS011;2605;49.770;9.868;2023-05-16T09:01:32;7.97;;;6.77;;
5171;SDS011;2605;49.770;9.868;2023-05-16T09:03:58;7.00;;;6.30;;
5171;SDS011;2605;49.770;9.868;2023-05-16T09:06:25;8.70;;;7.80;;
5171;SDS011;2605;49.770;9.868;2023-05-16T09:08:51;9.40;;;7.40;;
5171;SDS011;2605;49.770;9.868;2023-05-16T09:11:18;8.10;;;6.33;;
5171;SDS011;2605;49.770;9.868;2023-05-16T09:13:43;5.77;;;5.17;;
5171;SDS011;2605;49.770;9.868;2023-05-16T09:16:10;8.03;;;6.03;;
5171;SDS011;2605;49.770;9.868;2023-05-16T09:18:37;8.20;;;6.40;;
5171;SDS011;2605;49.770;9.868;2023-05-16T09:21:27;7.90;;;7.10;;
5171;SDS011;2605;49.770;9.868;2023-05-16T09:23:55;8.50;;;7.17;;
5171;SDS011;2605;49.770;9.868;2023-05-16T09:26:21;12.97;;;6.97;;
5171;SDS011;2605;49.770;9.868;2023-05-16T09:28:47;8.57;;;5.93;;
5171;SDS011;2605;49.770;9.868;2023-05-16T09:31:23;7.10;;;6.13;;
5171;SDS011;2605;49.770;9.868;2023-05-16T09:33:56;7.87;;;7.17;;
5171;SDS011;2605;49.770;9.868;2023-05-16T09:36:21;7.10;;;5.70;;
5171;SDS011;2605;49.770;9.868;2023-05-16T09:38:48;8.30;;;7.50;;
5171;SDS011;2605;49.770;9.868;2023-05-16T09:41:15;6.57;;;5.93;;
5171;SDS011;2605;49.770;9.868;2023-05-16T09:43:41;9.30;;;7.23;;
5171;SDS011;2605;49.770;9.868;2023-05-16T09:46:07;6.87;;;6.10;;
5171;SDS011;2605;49.770;9.868;2023-05-16T09:48:36;8.30;;;6.20;;
5171;SDS011;2605;49.770;9.868;2023-05-16T09:51:15;6.00;;;5.40;;
5171;SDS011;2605;49.770;9.868;2023-05-16T09:53:46;9.33;;;5.90;;
5171;SDS011;2605;49.770;9.868;2023-05-16T09:56:12;5.37;;;4.67;;
5171;SDS011;2605;49.770;9.868;2023-05-16T09:58:39;12.20;;;4.53;;
5171;SDS011;2605;49.770;9.868;2023-05-16T10:01:06;5.30;;;4.57;;
5171;SDS011;2605;49.770;9.868;2023-05-16T10:03:36;7.17;;;6.57;;
5171;SDS011;2605;49.770;9.868;2023-05-16T10:06:03;6.40;;;5.80;;
5171;SDS011;2605;49.770;9.868;2023-05-16T10:08:31;9.03;;;4.87;;
5171;SDS011;2605;49.770;9.868;2023-05-16T10:11:00;4.40;;;3.80;;
5171;SDS011;2605;49.770;9.868;2023-05-16T10:13:30;5.83;;;5.17;;
5171;SDS011;2605;49.770;9.868;2023-05-16T10:15:59;5.67;;;4.90;;
5171;SDS011;2605;49.770;9.868;2023-05-16T10:18:31;5.83;;;5.20;;
5171;SDS011;2605;49.770;9.868;2023-05-16T10:21:03;4.30;;;3.93;;
5171;SDS011;2605;49.770;9.868;2023-05-16T10:23:30;4.90;;;4.47;;
5171;SDS011;2605;49.770;9.868;2023-05-16T10:25:59;5.47;;;4.50;;
5171;SDS011;2605;49.770;9.868;2023-05-16T10:28:27;4.47;;;3.87;;
5171;SDS011;2605;49.770;9.868;2023-05-16T10:30:53;10.43;;;5.47;;
5171;SDS011;2605;49.770;9.868;2023-05-16T10:33:19;4.80;;;4.30;;
5171;SDS011;2605;49.770;9.868;2023-05-16T10:35:45;7.30;;;3.97;;
5171;SDS011;2605;49.770;9.868;2023-05-16T10:38:12;3.93;;;3.63;;
5171;SDS011;2605;49.770;9.868;2023-05-16T10:40:41;4.37;;;3.83;;
5171;SDS011;2605;49.770;9.868;2023-05-16T10:43:07;5.23;;;4.63;;
5171;SDS011;2605;49.770;9.868;2023-05-16T10:45:34;3.87;;;2.73;;
5171;SDS011;2605;49.770;9.868;2023-05-16T10:48:04;2.80;;;2.60;;
5171;SDS011;2605;49.770;9.868;2023-05-16T10:50:43;4.27;;;3.93;;
5171;SDS011;2605;49.770;9.868;2023-05-16T10:53:13;2.70;;;2.50;;
5171;SDS011;2605;49.770;9.868;2023-05-16T10:55:46;3.10;;;2.60;;
5171;SDS011;2605;49.770;9.868;2023-05-16T10:58:17;2.47;;;2.27;;
5171;SDS011;2605;49.770;9.868;2023-05-16T11:00:46;1.90;;;1.80;;
5171;SDS011;2605;49.770;9.868;2023-05-16T11:03:21;1.67;;;1.57;;
5171;SDS011;2605;49.770;9.868;2023-05-16T11:05:51;2.13;;;2.03;;
5171;SDS011;2605;49.770;9.868;2023-05-16T11:08:18;2.00;;;1.90;;
5171;SDS011;2605;49.770;9.868;2023-05-16T11:10:43;2.20;;;2.00;;
5171;SDS011;2605;49.770;9.868;2023-05-16T11:13:09;1.73;;;1.63;;
5171;SDS011;2605;49.770;9.868;2023-05-16T11:15:35;5.50;;;1.43;;
5171;SDS011;2605;49.770;9.868;2023-05-16T11:18:06;2.00;;;1.90;;
5171;SDS011;2605;49.770;9.868;2023-05-16T11:20:34;2.17;;;1.97;;
5171;SDS011;2605;49.770;9.868;2023-05-16T11:25:41;2.23;;;2.07;;
5171;SDS011;2605;49.770;9.868;2023-05-16T11:28:09;1.43;;;1.33;;
5171;SDS011;2605;49.770;9.868;2023-05-16T11:30:51;1.87;;;1.77;;
5171;SDS011;2605;49.770;9.868;2023-05-16T11:33:19;1.73;;;1.63;;
5171;SDS011;2605;49.770;9.868;2023-05-16T11:36:05;1.83;;;1.40;;
5171;SDS011;2605;49.770;9.868;2023-05-16T11:38:32;3.97;;;1.30;;
5171;SDS011;2605;49.770;9.868;2023-05-16T11:41:05;1.47;;;1.30;;
5171;SDS011;2605;49.770;9.868;2023-05-16T11:43:36;1.60;;;1.50;;
5171;SDS011;2605;49.770;9.868;2023-05-16T11:46:11;1.43;;;1.33;;
5171;SDS011;2605;49.770;9.868;2023-05-16T11:48:38;2.03;;;1.93;;
5171;SDS011;2605;49.770;9.868;2023-05-16T11:51:04;1.30;;;1.20;;
5171;SDS011;2605;49.770;9.868;2023-05-16T11:53:30;2.10;;;1.30;;
5171;SDS011;2605;49.770;9.868;2023-05-16T11:55:55;1.60;;;1.50;;
5171;SDS011;2605;49.770;9.868;2023-05-16T11:58:24;1.93;;;1.40;;
5171;SDS011;2605;49.770;9.868;2023-05-16T12:00:50;1.57;;;1.47;;
5171;SDS011;2605;49.770;9.868;2023-05-16T12:03:17;1.63;;;1.53;;
5171;SDS011;2605;49.770;9.868;2023-05-16T12:05:51;1.43;;;1.33;;
5171;SDS011;2605;49.770;9.868;2023-05-16T12:08:18;2.07;;;1.97;;
5171;SDS011;2605;49.770;9.868;2023-05-16T12:10:45;1.80;;;1.70;;
5171;SDS011;2605;49.770;9.868;2023-05-16T12:13:13;8.03;;;1.50;;
5171;SDS011;2605;49.770;9.868;2023-05-16T12:15:39;2.33;;;1.50;;
5171;SDS011;2605;49.770;9.868;2023-05-16T12:18:04;1.80;;;1.70;;
5171;SDS011;2605;49.770;9.868;2023-05-16T12:20:30;2.63;;;2.43;;
5171;SDS011;2605;49.770;9.868;2023-05-16T12:22:56;3.00;;;2.10;;
5171;SDS011;2605;49.770;9.868;2023-05-16T12:25:25;2.00;;;1.80;;
5171;SDS011;2605;49.770;9.868;2023-05-16T12:27:53;2.10;;;1.90;;
5171;SDS011;2605;49.770;9.868;2023-05-16T12:30:21;2.00;;;1.67;;
5171;SDS011;2605;49.770;9.868;2023-05-16T12:32:57;2.00;;;1.90;;
5171;SDS011;2605;49.770;9.868;2023-05-16T12:35:23;1.93;;;1.73;;
5171;SDS011;2605;49.770;9.868;2023-05-16T12:37:49;1.73;;;1.63;;
5171;SDS011;2605;49.770;9.868;2023-05-16T12:40:15;1.40;;;1.30;;
5171;SDS011;2605;49.770;9.868;2023-05-16T12:42:48;2.20;;;1.87;;
5171;SDS011;2605;49.770;9.868;2023-05-16T12:45:15;1.63;;;1.53;;
5171;SDS011;2605;49.770;9.868;2023-05-16T12:47:42;1.73;;;1.63;;
5171;SDS011;2605;49.770;9.868;2023-05-16T12:50:10;2.13;;;1.90;;
5171;SDS011;2605;49.770;9.868;2023-05-16T12:52:45;3.13;;;2.00;;
5171;SDS011;2605;49.770;9.868;2023-05-16T12:55:13;2.17;;;1.60;;
5171;SDS011;2605;49.770;9.868;2023-05-16T12:57:40;4.57;;;2.20;;
5171;SDS011;2605;49.770;9.868;2023-05-16T13:00:08;1.70;;;1.50;;
5171;SDS011;2605;49.770;9.868;2023-05-16T13:02:35;2.17;;;1.97;;
5171;SDS011;2605;49.770;9.868;2023-05-16T13:05:01;2.20;;;1.87;;
5171;SDS011;2605;49.770;9.868;2023-05-16T13:07:27;3.07;;;1.87;;
5171;SDS011;2605;49.770;9.868;2023-05-16T13:09:52;2.90;;;2.07;;
5171;SDS011;2605;49.770;9.868;2023-05-16T13:12:18;4.40;;;2.40;;
5171;SDS011;2605;49.770;9.868;2023-05-16T13:14:43;3.53;;;1.80;;
5171;SDS011;2605;49.770;9.868;2023-05-16T13:17:09;2.47;;;2.27;;
5171;SDS011;2605;49.770;9.868;2023-05-16T13:19:35;1.97;;;1.60;;
5171;SDS011;2605;49.770;9.868;2023-05-16T13:22:01;3.00;;;2.60;;
5171;SDS011;2605;49.770;9.868;2023-05-16T13:24:27;6.80;;;3.07;;
5171;SDS011;2605;49.770;9.868;2023-05-16T13:26:53;3.03;;;2.13;;
5171;SDS011;2605;49.770;9.868;2023-05-16T13:29:18;2.30;;;2.20;;
5171;SDS011;2605;49.770;9.868;2023-05-16T13:31:44;2.87;;;2.17;;
5171;SDS011;2605;49.770;9.868;2023-05-16T13:34:09;5.50;;;3.73;;
5171;SDS011;2605;49.770;9.868;2023-05-16T13:36:35;3.03;;;2.20;;
5171;SDS011;2605;49.770;9.868;2023-05-16T13:39:01;3.63;;;2.10;;
5171;SDS011;2605;49.770;9.868;2023-05-16T13:41:26;2.80;;;2.27;;
5171;SDS011;2605;49.770;9.868;2023-05-16T13:43:52;1.87;;;1.77;;
5171;SDS011;2605;49.770;9.868;2023-05-16T13:46:17;1.87;;;1.73;;
5171;SDS011;2605;49.770;9.868;2023-05-16T13:48:43;2.80;;;1.60;;
5171;SDS011;2605;49.770;9.868;2023-05-16T13:51:08;3.20;;;1.83;;
5171;SDS011;2605;49.770;9.868;2023-05-16T13:53:35;3.83;;;2.60;;
5171;SDS011;2605;49.770;9.868;2023-05-16T13:56:00;6.47;;;2.93;;
5171;SDS011;2605;49.770;9.868;2023-05-16T13:58:26;10.47;;;2.40;;
5171;SDS011;2605;49.770;9.868;2023-05-16T14:00:51;2.33;;;2.13;;
5171;SDS011;2605;49.770;9.868;2023-05-16T14:03:17;2.33;;;1.77;;
5171;SDS011;2605;49.770;9.868;2023-05-16T14:05:43;5.03;;;2.27;;
5171;SDS011;2605;49.770;9.868;2023-05-16T14:08:11;3.00;;;1.70;;
5171;SDS011;2605;49.770;9.868;2023-05-16T14:10:38;4.83;;;2.27;;
5171;SDS011;2605;49.770;9.868;2023-05-16T14:13:03;6.23;;;1.53;;
5171;SDS011;2605;49.770;9.868;2023-05-16T14:15:29;2.40;;;1.53;;
5171;SDS011;2605;49.770;9.868;2023-05-16T14:17:54;2.20;;;1.93;;
5171;SDS011;2605;49.770;9.868;2023-05-16T14:20:20;2.90;;;1.47;;
5171;SDS011;2605;49.770;9.868;2023-05-16T14:22:45;3.77;;;2.40;;
5171;SDS011;2605;49.770;9.868;2023-05-16T14:25:11;3.83;;;1.73;;
5171;SDS011;2605;49.770;9.868;2023-05-16T14:27:37;4.83;;;1.90;;
5171;SDS011;2605;49.770;9.868;2023-05-16T14:30:02;2.23;;;1.27;;
5171;SDS011;2605;49.770;9.868;2023-05-16T14:32:28;1.90;;;1.63;;
5171;SDS011;2605;49.770;9.868;2023-05-16T14:34:54;2.00;;;1.47;;
5171;SDS011;2605;49.770;9.868;2023-05-16T14:37:19;3.73;;;1.50;;
5171;SDS011;2605;49.770;9.868;2023-05-16T14:39:45;2.07;;;1.30;;
5171;SDS011;2605;49.770;9.868;2023-05-16T14:42:13;3.17;;;1.83;;
5171;SDS011;2605;49.770;9.868;2023-05-16T14:44:38;4.57;;;1.67;;
5171;SDS011;2605;49.770;9.868;2023-05-16T14:47:04;1.27;;;1.10;;
5171;SDS011;2605;49.770;9.868;2023-05-16T14:49:30;4.77;;;1.67;;
5171;SDS011;2605;49.770;9.868;2023-05-16T14:51:56;3.00;;;1.53;;
5171;SDS011;2605;49.770;9.868;2023-05-16T14:54:21;2.40;;;1.80;;
5171;SDS011;2605;49.770;9.868;2023-05-16T14:56:47;3.57;;;1.90;;
5171;SDS011;2605;49.770;9.868;2023-05-16T14:59:13;5.17;;;1.60;;
5171;SDS011;2605;49.770;9.868;2023-05-16T15:01:38;2.00;;;1.27;;
5171;SDS011;2605;49.770;9.868;2023-05-16T15:04:04;2.27;;;1.20;;
5171;SDS011;2605;49.770;9.868;2023-05-16T15:06:29;2.40;;;1.60;;
5171;SDS011;2605;49.770;9.868;2023-05-16T15:08:55;3.63;;;1.63;;
5171;SDS011;2605;49.770;9.868;2023-05-16T15:11:20;2.20;;;1.27;;
5171;SDS011;2605;49.770;9.868;2023-05-16T15:13:46;3.47;;;1.10;;